sensor_id;sensor_type;location;lat;lon;timestamp;P1;durP1;ratioP1;P2;durP2;ratioP2
28547;SDS011;15750;49.600;8.746;2022-08-21T00:01:55;4.20;;;3.80;;
28547;SDS011;15750;49.600;8.746;2022-08-21T00:04:43;4.20;;;3.80;;
28547;SDS011;15750;49.600;8.746;2022-08-21T00:07:42;4.15;;;3.75;;
28547;SDS011;15750;49.600;8.746;2022-08-21T00:10:30;4.25;;;3.80;;
28547;SDS011;15750;49.600;8.746;2022-08-21T00:13:18;4.38;;;3.83;;
28547;SDS011;15750;49.600;8.746;2022-08-21T00:16:06;4.40;;;4.00;;
28547;SDS011;15750;49.600;8.746;2022-08-21T00:18:54;5.07;;;4.00;;
28547;SDS011;15750;49.600;8.746;2022-08-21T00:21:42;4.32;;;3.95;;
28547;SDS011;15750;49.600;8.746;2022-08-21T00:24:30;4.13;;;3.83;;
28547;SDS011;15750;49.600;8.746;2022-08-21T00:27:18;3.90;;;3.60;;
28547;SDS011;15750;49.600;8.746;2022-08-21T00:30:06;4.22;;;3.83;;
28547;SDS011;15750;49.600;8.746;2022-08-21T00:33:03;4.18;;;3.78;;
28547;SDS011;15750;49.600;8.746;2022-08-21T00:35:52;5.32;;;4.05;;
28547;SDS011;15750;49.600;8.746;2022-08-21T00:38:40;4.40;;;4.00;;
28547;SDS011;15750;49.600;8.746;2022-08-21T00:41:28;4.45;;;3.83;;
28547;SDS011;15750;49.600;8.746;2022-08-21T00:44:21;3.83;;;3.53;;
28547;SDS011;15750;49.600;8.746;2022-08-21T00:47:09;4.22;;;3.92;;
28547;SDS011;15750;49.600;8.746;2022-08-21T00:49:56;4.75;;;4.20;;
28547;SDS011;15750;49.600;8.746;2022-08-21T00:52:43;5.43;;;4.00;;
28547;SDS011;15750;49.600;8.746;2022-08-21T00:55:33;4.75;;;4.35;;
28547;SDS011;15750;49.600;8.746;2022-08-21T00:58:24;5.13;;;4.63;;
28547;SDS011;15750;49.600;8.746;2022-08-21T01:01:13;4.38;;;3.97;;
28547;SDS011;15750;49.600;8.746;2022-08-21T01:04:03;4.85;;;4.00;;
28547;SDS011;15750;49.600;8.746;2022-08-21T01:06:50;4.90;;;4.13;;
28547;SDS011;15750;49.600;8.746;2022-08-21T01:09:38;7.90;;;4.22;;
28547;SDS011;15750;49.600;8.746;2022-08-21T01:12:26;4.80;;;4.40;;
28547;SDS011;15750;49.600;8.746;2022-08-21T01:15:15;4.85;;;4.45;;
28547;SDS011;15750;49.600;8.746;2022-08-21T01:18:03;4.65;;;4.25;;
28547;SDS011;15750;49.600;8.746;2022-08-21T01:21:08;4.97;;;4.53;;
28547;SDS011;15750;49.600;8.746;2022-08-21T01:23:58;5.13;;;4.63;;
28547;SDS011;15750;49.600;8.746;2022-08-21T01:26:46;5.53;;;4.97;;
28547;SDS011;15750;49.600;8.746;2022-08-21T01:29:36;5.43;;;4.93;;
28547;SDS011;15750;49.600;8.746;2022-08-21T01:32:29;5.07;;;4.55;;
28547;SDS011;15750;49.600;8.746;2022-08-21T01:35:17;6.05;;;4.82;;
28547;SDS011;15750;49.600;8.746;2022-08-21T01:38:07;5.10;;;4.70;;
28547;SDS011;15750;49.600;8.746;2022-08-21T01:40:54;5.22;;;4.72;;
28547;SDS011;15750;49.600;8.746;2022-08-21T01:43:41;4.25;;;3.80;;
28547;SDS011;15750;49.600;8.746;2022-08-21T01:46:29;4.22;;;3.83;;
28547;SDS011;15750;49.600;8.746;2022-08-21T01:49:18;4.70;;;4.20;;
28547;SDS011;15750;49.600;8.746;2022-08-21T01:52:06;5.00;;;3.97;;
28547;SDS011;15750;49.600;8.746;2022-08-21T01:54:55;5.75;;;4.53;;
28547;SDS011;15750;49.600;8.746;2022-08-21T01:57:43;5.63;;;4.38;;
28547;SDS011;15750;49.600;8.746;2022-08-21T02:00:31;4.70;;;4.30;;
28547;SDS011;15750;49.600;8.746;2022-08-21T02:03:18;5.05;;;4.55;;
28547;SDS011;15750;49.600;8.746;2022-08-21T02:06:20;5.07;;;4.60;;
28547;SDS011;15750;49.600;8.746;2022-08-21T02:09:08;4.47;;;4.05;;
28547;SDS011;15750;49.600;8.746;2022-08-21T02:11:59;4.88;;;4.43;;
28547;SDS011;15750;49.600;8.746;2022-08-21T02:14:47;4.80;;;4.40;;
28547;SDS011;15750;49.600;8.746;2022-08-21T02:17:41;5.78;;;4.30;;
28547;SDS011;15750;49.600;8.746;2022-08-21T02:20:31;5.05;;;4.30;;
28547;SDS011;15750;49.600;8.746;2022-08-21T02:23:22;5.10;;;4.70;;
28547;SDS011;15750;49.600;8.746;2022-08-21T02:26:12;4.35;;;3.97;;
28547;SDS011;15750;49.600;8.746;2022-08-21T02:29:01;4.85;;;4.32;;
28547;SDS011;15750;49.600;8.746;2022-08-21T02:31:49;4.80;;;4.30;;
28547;SDS011;15750;49.600;8.746;2022-08-21T02:34:38;5.53;;;5.03;;
28547;SDS011;15750;49.600;8.746;2022-08-21T02:37:25;6.00;;;5.50;;
28547;SDS011;15750;49.600;8.746;2022-08-21T02:40:13;5.53;;;5.03;;
28547;SDS011;15750;49.600;8.746;2022-08-21T02:43:02;5.20;;;4.70;;
28547;SDS011;15750;49.600;8.746;2022-08-21T02:45:54;5.22;;;4.82;;
28547;SDS011;15750;49.600;8.746;2022-08-21T02:48:43;5.50;;;5.05;;
28547;SDS011;15750;49.600;8.746;2022-08-21T02:51:31;5.43;;;4.97;;
28547;SDS011;15750;49.600;8.746;2022-08-21T02:54:18;6.45;;;4.90;;
28547;SDS011;15750;49.600;8.746;2022-08-21T02:57:06;7.43;;;5.63;;
28547;SDS011;15750;49.600;8.746;2022-08-21T02:59:53;6.05;;;5.45;;
28547;SDS011;15750;49.600;8.746;2022-08-21T03:02:42;5.70;;;5.15;;
28547;SDS011;15750;49.600;8.746;2022-08-21T03:05:31;5.60;;;5.10;;
28547;SDS011;15750;49.600;8.746;2022-08-21T03:08:22;6.05;;;5.45;;
28547;SDS011;15750;49.600;8.746;2022-08-21T03:11:12;6.43;;;5.93;;
28547;SDS011;15750;49.600;8.746;2022-08-21T03:14:00;5.60;;;5.10;;
28547;SDS011;15750;49.600;8.746;2022-08-21T03:16:47;5.43;;;5.03;;
28547;SDS011;15750;49.600;8.746;2022-08-21T03:19:36;6.30;;;5.80;;
28547;SDS011;15750;49.600;8.746;2022-08-21T03:22:24;6.15;;;5.55;;
28547;SDS011;15750;49.600;8.746;2022-08-21T03:25:14;6.35;;;5.70;;
28547;SDS011;15750;49.600;8.746;2022-08-21T03:28:05;6.75;;;5.28;;
28547;SDS011;15750;49.600;8.746;2022-08-21T03:30:57;6.05;;;5.55;;
28547;SDS011;15750;49.600;8.746;2022-08-21T03:33:45;6.30;;;5.45;;
28547;SDS011;15750;49.600;8.746;2022-08-21T03:36:34;5.68;;;5.22;;
28547;SDS011;15750;49.600;8.746;2022-08-21T03:39:21;5.68;;;5.18;;
28547;SDS011;15750;49.600;8.746;2022-08-21T03:42:08;7.20;;;5.93;;
28547;SDS011;15750;49.600;8.746;2022-08-21T03:44:56;5.82;;;5.35;;
28547;SDS011;15750;49.600;8.746;2022-08-21T03:47:53;6.15;;;5.60;;
28547;SDS011;15750;49.600;8.746;2022-08-21T03:50:43;5.82;;;5.32;;
28547;SDS011;15750;49.600;8.746;2022-08-21T03:53:33;6.20;;;5.60;;
28547;SDS011;15750;49.600;8.746;2022-08-21T03:56:21;6.55;;;5.65;;
28547;SDS011;15750;49.600;8.746;2022-08-21T03:59:08;5.82;;;5.25;;
28547;SDS011;15750;49.600;8.746;2022-08-21T04:01:56;6.07;;;5.50;;
28547;SDS011;15750;49.600;8.746;2022-08-21T04:04:45;5.97;;;5.43;;
28547;SDS011;15750;49.600;8.746;2022-08-21T04:07:33;6.22;;;5.63;;
28547;SDS011;15750;49.600;8.746;2022-08-21T04:10:22;5.78;;;5.15;;
28547;SDS011;15750;49.600;8.746;2022-08-21T04:13:10;5.72;;;5.22;;
28547;SDS011;15750;49.600;8.746;2022-08-21T04:15:59;6.00;;;5.35;;
28547;SDS011;15750;49.600;8.746;2022-08-21T04:18:47;5.88;;;5.38;;
28547;SDS011;15750;49.600;8.746;2022-08-21T04:21:34;5.97;;;5.47;;
28547;SDS011;15750;49.600;8.746;2022-08-21T04:24:23;7.25;;;4.93;;
28547;SDS011;15750;49.600;8.746;2022-08-21T04:27:15;5.78;;;5.22;;
28547;SDS011;15750;49.600;8.746;2022-08-21T04:30:02;5.32;;;4.82;;
28547;SDS011;15750;49.600;8.746;2022-08-21T04:32:51;5.43;;;4.90;;
28547;SDS011;15750;49.600;8.746;2022-08-21T04:35:38;6.43;;;5.82;;
28547;SDS011;15750;49.600;8.746;2022-08-21T04:38:27;6.43;;;5.82;;
28547;SDS011;15750;49.600;8.746;2022-08-21T04:41:24;6.38;;;5.78;;
28547;SDS011;15750;49.600;8.746;2022-08-21T04:44:13;6.35;;;5.85;;
28547;SDS011;15750;49.600;8.746;2022-08-21T04:47:01;6.50;;;5.80;;
28547;SDS011;15750;49.600;8.746;2022-08-21T04:49:48;6.00;;;5.50;;
28547;SDS011;15750;49.600;8.746;2022-08-21T04:52:36;7.00;;;5.70;;
28547;SDS011;15750;49.600;8.746;2022-08-21T04:55:23;6.18;;;5.57;;
28547;SDS011;15750;49.600;8.746;2022-08-21T04:58:13;6.05;;;5.45;;
28547;SDS011;15750;49.600;8.746;2022-08-21T05:01:07;6.13;;;5.60;;
28547;SDS011;15750;49.600;8.746;2022-08-21T05:04:05;5.57;;;5.07;;
28547;SDS011;15750;49.600;8.746;2022-08-21T05:06:58;6.40;;;5.15;;
28547;SDS011;15750;49.600;8.746;2022-08-21T05:09:49;6.45;;;5.57;;
28547;SDS011;15750;49.600;8.746;2022-08-21T05:12:37;5.50;;;5.00;;
28547;SDS011;15750;49.600;8.746;2022-08-21T05:15:25;6.07;;;5.47;;
28547;SDS011;15750;49.600;8.746;2022-08-21T05:18:16;6.60;;;5.75;;
28547;SDS011;15750;49.600;8.746;2022-08-21T05:21:04;6.38;;;5.32;;
28547;SDS011;15750;49.600;8.746;2022-08-21T05:23:51;6.40;;;5.90;;
28547;SDS011;15750;49.600;8.746;2022-08-21T05:26:38;5.82;;;5.38;;
28547;SDS011;15750;49.600;8.746;2022-08-21T05:29:30;7.03;;;5.97;;
28547;SDS011;15750;49.600;8.746;2022-08-21T05:32:17;6.00;;;5.40;;
28547;SDS011;15750;49.600;8.746;2022-08-21T05:35:07;6.43;;;5.88;;
28547;SDS011;15750;49.600;8.746;2022-08-21T05:37:56;6.20;;;5.65;;
28547;SDS011;15750;49.600;8.746;2022-08-21T05:40:45;7.03;;;5.65;;
28547;SDS011;15750;49.600;8.746;2022-08-21T05:43:32;6.50;;;5.93;;
28547;SDS011;15750;49.600;8.746;2022-08-21T05:46:21;5.90;;;5.40;;
28547;SDS011;15750;49.600;8.746;2022-08-21T05:49:08;6.95;;;6.25;;
28547;SDS011;15750;49.600;8.746;2022-08-21T05:51:57;8.05;;;5.50;;
28547;SDS011;15750;49.600;8.746;2022-08-21T05:54:44;6.80;;;6.05;;
28547;SDS011;15750;49.600;8.746;2022-08-21T05:57:31;7.03;;;5.90;;
28547;SDS011;15750;49.600;8.746;2022-08-21T06:00:18;6.60;;;6.00;;
28547;SDS011;15750;49.600;8.746;2022-08-21T06:03:11;6.68;;;5.97;;
28547;SDS011;15750;49.600;8.746;2022-08-21T06:06:00;9.20;;;6.00;;
28547;SDS011;15750;49.600;8.746;2022-08-21T06:08:50;6.30;;;5.70;;
28547;SDS011;15750;49.600;8.746;2022-08-21T06:11:37;6.35;;;5.72;;
28547;SDS011;15750;49.600;8.746;2022-08-21T06:14:24;7.57;;;6.03;;
28547;SDS011;15750;49.600;8.746;2022-08-21T06:17:12;5.25;;;4.85;;
28547;SDS011;15750;49.600;8.746;2022-08-21T06:20:00;6.15;;;5.65;;
28547;SDS011;15750;49.600;8.746;2022-08-21T06:22:49;6.45;;;5.82;;
28547;SDS011;15750;49.600;8.746;2022-08-21T06:25:38;7.65;;;6.25;;
28547;SDS011;15750;49.600;8.746;2022-08-21T06:28:25;6.60;;;6.00;;
28547;SDS011;15750;49.600;8.746;2022-08-21T06:31:13;5.75;;;5.20;;
28547;SDS011;15750;49.600;8.746;2022-08-21T06:34:03;5.85;;;5.40;;
28547;SDS011;15750;49.600;8.746;2022-08-21T06:36:50;6.13;;;5.53;;
28547;SDS011;15750;49.600;8.746;2022-08-21T06:39:40;6.63;;;6.05;;
28547;SDS011;15750;49.600;8.746;2022-08-21T06:42:30;6.60;;;5.90;;
28547;SDS011;15750;49.600;8.746;2022-08-21T06:45:18;6.18;;;5.55;;
28547;SDS011;15750;49.600;8.746;2022-08-21T06:48:06;6.20;;;5.70;;
28547;SDS011;15750;49.600;8.746;2022-08-21T06:50:53;6.40;;;5.82;;
28547;SDS011;15750;49.600;8.746;2022-08-21T06:53:41;6.80;;;5.63;;
28547;SDS011;15750;49.600;8.746;2022-08-21T06:56:28;6.45;;;5.72;;
28547;SDS011;15750;49.600;8.746;2022-08-21T06:59:17;6.68;;;6.00;;
28547;SDS011;15750;49.600;8.746;2022-08-21T07:02:04;7.13;;;6.43;;
28547;SDS011;15750;49.600;8.746;2022-08-21T07:04:52;7.28;;;5.47;;
28547;SDS011;15750;49.600;8.746;2022-08-21T07:07:40;6.18;;;5.57;;
28547;SDS011;15750;49.600;8.746;2022-08-21T07:10:27;6.43;;;5.82;;
28547;SDS011;15750;49.600;8.746;2022-08-21T07:13:14;5.93;;;5.43;;
28547;SDS011;15750;49.600;8.746;2022-08-21T07:16:04;6.03;;;5.50;;
28547;SDS011;15750;49.600;8.746;2022-08-21T07:18:52;8.93;;;6.05;;
28547;SDS011;15750;49.600;8.746;2022-08-21T07:21:39;6.25;;;5.65;;
28547;SDS011;15750;49.600;8.746;2022-08-21T07:24:27;6.45;;;5.85;;
28547;SDS011;15750;49.600;8.746;2022-08-21T07:27:14;5.93;;;5.35;;
28547;SDS011;15750;49.600;8.746;2022-08-21T07:30:02;5.85;;;5.25;;
28547;SDS011;15750;49.600;8.746;2022-08-21T07:32:53;7.70;;;5.18;;
28547;SDS011;15750;49.600;8.746;2022-08-21T07:35:40;7.50;;;5.15;;
28547;SDS011;15750;49.600;8.746;2022-08-21T07:38:28;6.03;;;5.45;;
28547;SDS011;15750;49.600;8.746;2022-08-21T07:41:16;5.82;;;5.28;;
28547;SDS011;15750;49.600;8.746;2022-08-21T07:44:05;6.00;;;5.45;;
28547;SDS011;15750;49.600;8.746;2022-08-21T07:46:56;5.55;;;5.05;;
28547;SDS011;15750;49.600;8.746;2022-08-21T07:49:45;7.38;;;5.70;;
28547;SDS011;15750;49.600;8.746;2022-08-21T07:52:32;6.80;;;5.65;;
28547;SDS011;15750;49.600;8.746;2022-08-21T07:55:20;5.20;;;4.72;;
28547;SDS011;15750;49.600;8.746;2022-08-21T07:58:09;6.13;;;5.20;;
28547;SDS011;15750;49.600;8.746;2022-08-21T08:00:57;8.30;;;5.07;;
28547;SDS011;15750;49.600;8.746;2022-08-21T08:03:45;6.65;;;4.95;;
28547;SDS011;15750;49.600;8.746;2022-08-21T08:06:34;6.18;;;5.10;;
28547;SDS011;15750;49.600;8.746;2022-08-21T08:09:21;5.25;;;4.43;;
28547;SDS011;15750;49.600;8.746;2022-08-21T08:12:09;4.72;;;4.22;;
28547;SDS011;15750;49.600;8.746;2022-08-21T08:14:56;4.88;;;4.40;;
28547;SDS011;15750;49.600;8.746;2022-08-21T08:17:44;5.40;;;4.90;;
28547;SDS011;15750;49.600;8.746;2022-08-21T08:20:31;5.32;;;4.93;;
28547;SDS011;15750;49.600;8.746;2022-08-21T08:23:20;5.72;;;5.13;;
28547;SDS011;15750;49.600;8.746;2022-08-21T08:26:08;4.85;;;4.40;;
28547;SDS011;15750;49.600;8.746;2022-08-21T08:28:55;7.82;;;5.40;;
28547;SDS011;15750;49.600;8.746;2022-08-21T08:31:43;8.02;;;4.90;;
28547;SDS011;15750;49.600;8.746;2022-08-21T08:34:30;4.65;;;4.20;;
28547;SDS011;15750;49.600;8.746;2022-08-21T08:37:18;5.43;;;4.28;;
28547;SDS011;15750;49.600;8.746;2022-08-21T08:40:11;6.25;;;4.72;;
28547;SDS011;15750;49.600;8.746;2022-08-21T08:43:02;5.85;;;5.03;;
28547;SDS011;15750;49.600;8.746;2022-08-21T08:45:50;7.90;;;4.80;;
28547;SDS011;15750;49.600;8.746;2022-08-21T08:48:45;7.32;;;4.93;;
28547;SDS011;15750;49.600;8.746;2022-08-21T08:51:40;5.75;;;5.07;;
28547;SDS011;15750;49.600;8.746;2022-08-21T08:54:39;5.60;;;5.05;;
28547;SDS011;15750;49.600;8.746;2022-08-21T08:57:31;6.90;;;4.55;;
28547;SDS011;15750;49.600;8.746;2022-08-21T09:00:20;6.30;;;4.43;;
28547;SDS011;15750;49.600;8.746;2022-08-21T09:03:10;32.97;;;6.55;;
28547;SDS011;15750;49.600;8.746;2022-08-21T09:05:58;6.68;;;5.55;;
28547;SDS011;15750;49.600;8.746;2022-08-21T09:08:58;6.85;;;5.03;;
28547;SDS011;15750;49.600;8.746;2022-08-21T09:11:57;7.07;;;4.70;;
28547;SDS011;15750;49.600;8.746;2022-08-21T09:14:53;4.95;;;4.50;;
28547;SDS011;15750;49.600;8.746;2022-08-21T09:18:01;8.35;;;4.60;;
28547;SDS011;15750;49.600;8.746;2022-08-21T09:21:07;6.55;;;4.55;;
28547;SDS011;15750;49.600;8.746;2022-08-21T09:24:10;9.93;;;4.90;;
28547;SDS011;15750;49.600;8.746;2022-08-21T09:27:13;24.63;;;5.75;;
28547;SDS011;15750;49.600;8.746;2022-08-21T09:30:05;8.60;;;5.20;;
28547;SDS011;15750;49.600;8.746;2022-08-21T09:32:56;5.88;;;4.65;;
28547;SDS011;15750;49.600;8.746;2022-08-21T09:35:48;6.05;;;4.65;;
28547;SDS011;15750;49.600;8.746;2022-08-21T09:38:38;5.25;;;4.63;;
28547;SDS011;15750;49.600;8.746;2022-08-21T09:41:27;6.50;;;4.63;;
28547;SDS011;15750;49.600;8.746;2022-08-21T09:44:23;5.20;;;4.68;;
28547;SDS011;15750;49.600;8.746;2022-08-21T09:47:17;6.00;;;5.07;;
28547;SDS011;15750;49.600;8.746;2022-08-21T09:50:12;8.10;;;5.20;;
28547;SDS011;15750;49.600;8.746;2022-08-21T09:53:03;6.15;;;4.13;;
28547;SDS011;15750;49.600;8.746;2022-08-21T09:55:53;5.53;;;4.22;;
28547;SDS011;15750;49.600;8.746;2022-08-21T09:59:00;7.40;;;4.40;;
28547;SDS011;15750;49.600;8.746;2022-08-21T10:01:49;8.75;;;4.53;;
28547;SDS011;15750;49.600;8.746;2022-08-21T10:04:39;5.97;;;4.10;;
28547;SDS011;15750;49.600;8.746;2022-08-21T10:07:31;5.20;;;3.88;;
28547;SDS011;15750;49.600;8.746;2022-08-21T10:10:26;4.18;;;3.78;;
28547;SDS011;15750;49.600;8.746;2022-08-21T10:13:18;4.70;;;4.20;;
28547;SDS011;15750;49.600;8.746;2022-08-21T10:16:15;6.25;;;3.75;;
28547;SDS011;15750;49.600;8.746;2022-08-21T10:19:18;5.38;;;3.63;;
28547;SDS011;15750;49.600;8.746;2022-08-21T10:22:17;5.18;;;3.78;;
28547;SDS011;15750;49.600;8.746;2022-08-21T10:25:18;4.57;;;3.58;;
28547;SDS011;15750;49.600;8.746;2022-08-21T10:28:13;7.60;;;4.05;;
28547;SDS011;15750;49.600;8.746;2022-08-21T10:31:11;4.70;;;4.00;;
28547;SDS011;15750;49.600;8.746;2022-08-21T10:34:17;4.32;;;3.92;;
28547;SDS011;15750;49.600;8.746;2022-08-21T10:37:23;4.60;;;3.60;;
28547;SDS011;15750;49.600;8.746;2022-08-21T10:40:30;6.40;;;3.88;;
28547;SDS011;15750;49.600;8.746;2022-08-21T10:43:28;4.30;;;3.90;;
28547;SDS011;15750;49.600;8.746;2022-08-21T10:46:32;4.10;;;3.70;;
28547;SDS011;15750;49.600;8.746;2022-08-21T10:49:37;6.28;;;3.80;;
28547;SDS011;15750;49.600;8.746;2022-08-21T10:52:34;5.90;;;3.70;;
28547;SDS011;15750;49.600;8.746;2022-08-21T10:55:50;6.63;;;4.13;;
28547;SDS011;15750;49.600;8.746;2022-08-21T10:58:45;5.80;;;3.88;;
28547;SDS011;15750;49.600;8.746;2022-08-21T11:01:46;7.75;;;3.70;;
28547;SDS011;15750;49.600;8.746;2022-08-21T11:04:48;4.72;;;3.85;;
28547;SDS011;15750;49.600;8.746;2022-08-21T11:07:45;5.30;;;4.80;;
28547;SDS011;15750;49.600;8.746;2022-08-21T11:10:40;3.70;;;3.40;;
28547;SDS011;15750;49.600;8.746;2022-08-21T11:13:43;4.53;;;3.83;;
28547;SDS011;15750;49.600;8.746;2022-08-21T11:16:36;4.15;;;3.53;;
28547;SDS011;15750;49.600;8.746;2022-08-21T11:19:28;5.07;;;3.85;;
28547;SDS011;15750;49.600;8.746;2022-08-21T11:22:23;6.00;;;4.32;;
28547;SDS011;15750;49.600;8.746;2022-08-21T11:25:21;5.47;;;3.92;;
28547;SDS011;15750;49.600;8.746;2022-08-21T11:28:22;6.00;;;3.70;;
28547;SDS011;15750;49.600;8.746;2022-08-21T11:31:17;4.82;;;3.97;;
28547;SDS011;15750;49.600;8.746;2022-08-21T11:34:25;6.80;;;3.65;;
28547;SDS011;15750;49.600;8.746;2022-08-21T11:37:30;5.20;;;3.67;;
28547;SDS011;15750;49.600;8.746;2022-08-21T11:40:41;4.75;;;3.75;;
28547;SDS011;15750;49.600;8.746;2022-08-21T11:43:44;6.05;;;3.83;;
28547;SDS011;15750;49.600;8.746;2022-08-21T11:46:36;4.10;;;3.65;;
28547;SDS011;15750;49.600;8.746;2022-08-21T11:49:36;5.38;;;3.53;;
28547;SDS011;15750;49.600;8.746;2022-08-21T11:52:42;5.15;;;3.80;;
28547;SDS011;15750;49.600;8.746;2022-08-21T11:55:36;5.18;;;3.42;;
28547;SDS011;15750;49.600;8.746;2022-08-21T11:58:31;6.43;;;3.88;;
28547;SDS011;15750;49.600;8.746;2022-08-21T12:01:25;5.72;;;3.63;;
28547;SDS011;15750;49.600;8.746;2022-08-21T12:04:17;6.25;;;3.80;;
28547;SDS011;15750;49.600;8.746;2022-08-21T12:07:28;5.40;;;3.47;;
28547;SDS011;15750;49.600;8.746;2022-08-21T12:10:19;4.78;;;3.47;;
28547;SDS011;15750;49.600;8.746;2022-08-21T12:13:24;3.70;;;3.25;;
28547;SDS011;15750;49.600;8.746;2022-08-21T12:16:30;5.50;;;3.28;;
28547;SDS011;15750;49.600;8.746;2022-08-21T12:19:28;6.38;;;3.75;;
28547;SDS011;15750;49.600;8.746;2022-08-21T12:22:18;6.22;;;3.72;;
28547;SDS011;15750;49.600;8.746;2022-08-21T12:25:07;4.35;;;3.35;;
28547;SDS011;15750;49.600;8.746;2022-08-21T12:28:02;3.78;;;3.25;;
28547;SDS011;15750;49.600;8.746;2022-08-21T12:30:57;4.88;;;3.50;;
28547;SDS011;15750;49.600;8.746;2022-08-21T12:33:49;3.58;;;3.28;;
28547;SDS011;15750;49.600;8.746;2022-08-21T12:36:42;4.57;;;3.03;;
28547;SDS011;15750;49.600;8.746;2022-08-21T12:39:36;5.43;;;3.47;;
28547;SDS011;15750;49.600;8.746;2022-08-21T12:42:31;5.80;;;3.38;;
28547;SDS011;15750;49.600;8.746;2022-08-21T12:45:28;4.95;;;3.25;;
28547;SDS011;15750;49.600;8.746;2022-08-21T12:48:22;4.47;;;3.25;;
28547;SDS011;15750;49.600;8.746;2022-08-21T12:51:16;6.38;;;3.70;;
28547;SDS011;15750;49.600;8.746;2022-08-21T12:54:10;4.47;;;3.35;;
28547;SDS011;15750;49.600;8.746;2022-08-21T12:57:09;5.10;;;3.67;;
28547;SDS011;15750;49.600;8.746;2022-08-21T13:00:09;6.05;;;3.38;;
28547;SDS011;15750;49.600;8.746;2022-08-21T13:02:59;3.97;;;3.00;;
28547;SDS011;15750;49.600;8.746;2022-08-21T13:05:48;3.33;;;2.90;;
28547;SDS011;15750;49.600;8.746;2022-08-21T13:08:39;5.95;;;3.53;;
28547;SDS011;15750;49.600;8.746;2022-08-21T13:11:31;3.72;;;3.25;;
28547;SDS011;15750;49.600;8.746;2022-08-21T13:14:21;5.72;;;3.85;;
28547;SDS011;15750;49.600;8.746;2022-08-21T13:17:19;4.97;;;3.20;;
28547;SDS011;15750;49.600;8.746;2022-08-21T13:20:19;4.15;;;3.13;;
28547;SDS011;15750;49.600;8.746;2022-08-21T13:23:18;5.68;;;3.67;;
28547;SDS011;15750;49.600;8.746;2022-08-21T13:26:13;3.28;;;2.97;;
28547;SDS011;15750;49.600;8.746;2022-08-21T13:29:06;4.38;;;3.15;;
28547;SDS011;15750;49.600;8.746;2022-08-21T13:31:57;5.45;;;3.67;;
28547;SDS011;15750;49.600;8.746;2022-08-21T13:34:47;4.65;;;3.22;;
28547;SDS011;15750;49.600;8.746;2022-08-21T13:37:38;3.85;;;3.42;;
28547;SDS011;15750;49.600;8.746;2022-08-21T13:40:29;4.75;;;3.45;;
28547;SDS011;15750;49.600;8.746;2022-08-21T13:43:25;4.57;;;3.90;;
28547;SDS011;15750;49.600;8.746;2022-08-21T13:46:17;6.10;;;3.83;;
28547;SDS011;15750;49.600;8.746;2022-08-21T13:49:08;3.90;;;3.40;;
28547;SDS011;15750;49.600;8.746;2022-08-21T13:51:57;3.70;;;3.38;;
28547;SDS011;15750;49.600;8.746;2022-08-21T13:54:50;4.38;;;3.70;;
28547;SDS011;15750;49.600;8.746;2022-08-21T13:57:42;3.83;;;3.25;;
28547;SDS011;15750;49.600;8.746;2022-08-21T14:00:30;4.75;;;3.78;;
28547;SDS011;15750;49.600;8.746;2022-08-21T14:03:25;6.70;;;3.72;;
28547;SDS011;15750;49.600;8.746;2022-08-21T14:06:20;4.40;;;3.70;;
28547;SDS011;15750;49.600;8.746;2022-08-21T14:09:11;4.47;;;3.95;;
28547;SDS011;15750;49.600;8.746;2022-08-21T14:12:11;4.55;;;3.72;;
28547;SDS011;15750;49.600;8.746;2022-08-21T14:15:09;3.85;;;3.50;;
28547;SDS011;15750;49.600;8.746;2022-08-21T14:18:08;4.60;;;3.50;;
28547;SDS011;15750;49.600;8.746;2022-08-21T14:21:04;6.00;;;3.53;;
28547;SDS011;15750;49.600;8.746;2022-08-21T14:24:04;4.25;;;3.33;;
28547;SDS011;15750;49.600;8.746;2022-08-21T14:26:55;5.70;;;3.55;;
28547;SDS011;15750;49.600;8.746;2022-08-21T14:29:48;5.10;;;3.67;;
28547;SDS011;15750;49.600;8.746;2022-08-21T14:32:38;12.68;;;3.95;;
28547;SDS011;15750;49.600;8.746;2022-08-21T14:35:30;4.43;;;3.38;;
28547;SDS011;15750;49.600;8.746;2022-08-21T14:38:18;3.90;;;3.50;;
28547;SDS011;15750;49.600;8.746;2022-08-21T14:41:17;4.53;;;3.38;;
28547;SDS011;15750;49.600;8.746;2022-08-21T14:44:09;3.90;;;3.33;;
28547;SDS011;15750;49.600;8.746;2022-08-21T14:46:58;5.05;;;3.80;;
28547;SDS011;15750;49.600;8.746;2022-08-21T14:49:47;3.95;;;3.58;;
28547;SDS011;15750;49.600;8.746;2022-08-21T14:52:35;3.95;;;3.22;;
28547;SDS011;15750;49.600;8.746;2022-08-21T14:55:24;5.35;;;3.60;;
28547;SDS011;15750;49.600;8.746;2022-08-21T14:58:12;4.57;;;3.80;;
28547;SDS011;15750;49.600;8.746;2022-08-21T15:00:59;3.40;;;3.10;;
28547;SDS011;15750;49.600;8.746;2022-08-21T15:03:49;4.88;;;3.45;;
28547;SDS011;15750;49.600;8.746;2022-08-21T15:06:38;3.60;;;2.80;;
28547;SDS011;15750;49.600;8.746;2022-08-21T15:09:26;5.13;;;3.47;;
28547;SDS011;15750;49.600;8.746;2022-08-21T15:12:13;5.22;;;3.47;;
28547;SDS011;15750;49.600;8.746;2022-08-21T15:15:01;3.70;;;3.30;;
28547;SDS011;15750;49.600;8.746;2022-08-21T15:17:49;4.28;;;3.30;;
28547;SDS011;15750;49.600;8.746;2022-08-21T15:20:36;4.53;;;3.17;;
28547;SDS011;15750;49.600;8.746;2022-08-21T15:23:25;4.28;;;3.85;;
28547;SDS011;15750;49.600;8.746;2022-08-21T15:26:13;3.92;;;3.33;;
28547;SDS011;15750;49.600;8.746;2022-08-21T15:29:00;4.20;;;3.63;;
28547;SDS011;15750;49.600;8.746;2022-08-21T15:31:52;3.85;;;3.35;;
28547;SDS011;15750;49.600;8.746;2022-08-21T15:34:41;7.38;;;3.58;;
28547;SDS011;15750;49.600;8.746;2022-08-21T15:37:29;4.13;;;3.42;;
28547;SDS011;15750;49.600;8.746;2022-08-21T15:40:18;6.38;;;3.72;;
28547;SDS011;15750;49.600;8.746;2022-08-21T15:43:05;4.25;;;3.35;;
28547;SDS011;15750;49.600;8.746;2022-08-21T15:45:57;3.88;;;3.20;;
28547;SDS011;15750;49.600;8.746;2022-08-21T15:48:46;4.60;;;3.67;;
28547;SDS011;15750;49.600;8.746;2022-08-21T15:51:34;3.90;;;3.42;;
28547;SDS011;15750;49.600;8.746;2022-08-21T15:54:27;3.95;;;3.13;;
28547;SDS011;15750;49.600;8.746;2022-08-21T15:57:17;5.32;;;3.35;;
28547;SDS011;15750;49.600;8.746;2022-08-21T16:00:10;5.82;;;3.00;;
28547;SDS011;15750;49.600;8.746;2022-08-21T16:03:03;4.82;;;3.47;;
28547;SDS011;15750;49.600;8.746;2022-08-21T16:05:52;3.65;;;3.15;;
28547;SDS011;15750;49.600;8.746;2022-08-21T16:08:42;4.97;;;3.90;;
28547;SDS011;15750;49.600;8.746;2022-08-21T16:11:29;5.80;;;3.70;;
28547;SDS011;15750;49.600;8.746;2022-08-21T16:14:18;3.75;;;3.17;;
28547;SDS011;15750;49.600;8.746;2022-08-21T16:17:05;4.43;;;3.08;;
28547;SDS011;15750;49.600;8.746;2022-08-21T16:19:56;3.45;;;3.00;;
28547;SDS011;15750;49.600;8.746;2022-08-21T16:22:46;3.05;;;2.75;;
28547;SDS011;15750;49.600;8.746;2022-08-21T16:25:34;6.03;;;3.63;;
28547;SDS011;15750;49.600;8.746;2022-08-21T16:28:24;4.20;;;3.20;;
28547;SDS011;15750;49.600;8.746;2022-08-21T16:31:13;3.47;;;3.05;;
28547;SDS011;15750;49.600;8.746;2022-08-21T16:34:00;6.75;;;3.58;;
28547;SDS011;15750;49.600;8.746;2022-08-21T16:36:49;6.13;;;3.05;;
28547;SDS011;15750;49.600;8.746;2022-08-21T16:39:36;6.38;;;3.22;;
28547;SDS011;15750;49.600;8.746;2022-08-21T16:42:24;3.67;;;3.20;;
28547;SDS011;15750;49.600;8.746;2022-08-21T16:45:14;3.72;;;2.83;;
28547;SDS011;15750;49.600;8.746;2022-08-21T16:48:06;3.88;;;2.70;;
28547;SDS011;15750;49.600;8.746;2022-08-21T16:50:53;9.07;;;3.45;;
28547;SDS011;15750;49.600;8.746;2022-08-21T16:53:43;5.70;;;3.22;;
28547;SDS011;15750;49.600;8.746;2022-08-21T16:56:30;4.78;;;2.90;;
28547;SDS011;15750;49.600;8.746;2022-08-21T16:59:20;5.28;;;2.97;;
28547;SDS011;15750;49.600;8.746;2022-08-21T17:02:17;3.80;;;2.78;;
28547;SDS011;15750;49.600;8.746;2022-08-21T17:05:14;2.70;;;2.50;;
28547;SDS011;15750;49.600;8.746;2022-08-21T17:08:02;3.40;;;3.03;;
28547;SDS011;15750;49.600;8.746;2022-08-21T17:10:49;3.83;;;2.88;;
28547;SDS011;15750;49.600;8.746;2022-08-21T17:13:36;3.20;;;2.90;;